Dalton, Texas
Current Conditions -  °F | °C
As of 10:55 AM on Wednesday 22 Oct 2014 (Local Time) from KOSA Reporting Station
Clear Clear  
Wind Chill: 72°   Ceiling: Unl
Heat Index: 72°   Visibility: 10mi
Dew Point: 56°   Wind: 7mph
Humidity: 58%   Direction: 130°SE
Pressure: 30.21"   Gusts: NA
Location:  33.2006°N, 94.6977°W
Report Text: KOSA 221555Z AUTO 13006KT 10SM CLR 22/13 A3021 RMK AO1 T02210134
Loading
Personal Weather Stations






























Interactive Weather Map
Tropical Storm Tracking
New forecast layout! Learn more

10-Day Weather Forecast

Advertisements
Track Severe Weather on mobile